< < Back
Terminal Aerodrome Forecast


Current Version              Previous Versions:   1  2  3  4  5  6  7  8  9  

Terminal Aerodrome Forecast

788
FTUS44 KMOB 231100
TAFMOB
TAF
KMOB 231139Z 2312/2412 02008KT P6SM FEW200
     FM231800 04008KT P6SM FEW010
     FM232100 03007KT P6SM SKC=

Latest METAR

726
SAUS80 KWBC 240400 CCA
MTRMOB
METAR KMOB 240356Z 07006KT 10SM CLR 20/16 A3012 RMK AO2 SLP195
T02000161


USA.gov is the U.S. government's official web portal to all federal, state and local government web resources and services.